Nearby METAR Reports

 

KAIK - Aiken, South Carolina, USA
Distance from station: NE 8mi, 13km
Updated: Mon, 10-May-2021 15:15 EDT
Mostly cloudy
Mostly cloudy
 Wind from SW
Wind: SW 17 km/h
Temperature: 77°F , 25°C
Dew Point: 63°F , 17°C
Humidity: 61%
Barometer: 29.97 inHg , 1014.9 hPa
Clouds: Mostly cloudy
Visibility: 16 km
Cloud details: Mostly cloudy 9000 ft
2021/05/10 19:15 KAIK 101915Z AUTO 22009KT 10SM BKN090 25/17 A2997 RMK AO2 T02480172
KDNL - Augusta/Daniel, Georgia, USA
Distance from station: WSW 16mi, 26km
Updated: Mon, 10-May-2021 14:53 EDT
Mostly cloudy
Mostly cloudy
 Wind from WNW
Wind: WNW 11 km/h
Temperature: 79°F , 26°C
Dew Point: 63°F , 17°C
Humidity: 58%
Barometer: 29.97 inHg , 1014.9 hPa
Clouds: Mostly cloudy
Visibility: 16 km
Cloud details: Mostly cloudy 9500 ft
2021/05/10 18:53 KDNL 101853Z AUTO 29006KT 10SM BKN095 26/17 A2997 RMK AO2 SLP143 T02610167
 
KAGS - Augusta/Bush, Georgia, USA
Distance from station: SW 18mi, 28km
Updated: Mon, 10-May-2021 14:53 EDT
Overcast
Overcast
 Wind from WNW
Wind: WNW 11 km/h
Temperature: 77°F , 25°C
Dew Point: 70°F , 21°C
Humidity: 79%
Barometer: 29.95 inHg , 1014.2 hPa
Clouds: Overcast
Visibility: 16 km
Cloud details: Partly cloudy 2800 ft
Mostly cloudy 3200 ft
Overcast 12000 ft
2021/05/10 18:53 KAGS 101853Z 29006KT 10SM SCT028 BKN032 OVC120 25/21 A2995 RMK AO2 RAB27E49 SLP140 P0000 T02500206
KBNL - Barnwell, South Carolina, USA
Distance from station: SE 33mi, 52km
Updated: Mon, 10-May-2021 15:15 EDT
Mostly cloudy
Mostly cloudy
 Wind from SW
Wind: SW 13 km/h
Temperature: 79°F , 26°C
Dew Point: 66°F , 19°C
Humidity: 65%
Barometer: 29.97 inHg , 1014.9 hPa
Clouds: Mostly cloudy
Visibility: 16 km
Cloud details: Few Clouds 2800 ft
Few Clouds 3300 ft
Mostly cloudy 6500 ft
2021/05/10 19:15 KBNL 101915Z AUTO 23007KT 10SM FEW028 FEW033 BKN065 26/19 A2997 RMK AO2
 
KHQU - Mcduffie/Thomson, Georgia, USA
Distance from station: W 42mi, 68km
Updated: Mon, 10-May-2021 15:15 EDT
Partly cloudy
Partly cloudy
 Wind from W
Wind: W 17 km/h
Temperature: 79°F , 26°C
Dew Point: 64°F , 18°C
Humidity: 61%
Barometer: 29.97 inHg , 1014.9 hPa
Clouds: Partly cloudy
Visibility: 16 km
Cloud details: Partly cloudy 2900 ft
Partly cloudy 3600 ft
2021/05/10 19:15 KHQU 101915Z AUTO 27009KT 240V300 10SM SCT029 SCT036 26/18 A2997 RMK AO2 T02630175
KCAE - Columbia, South Carolina, USA
Distance from station: ENE 46mi, 74km
Updated: Mon, 10-May-2021 14:56 EDT
Mostly cloudy
Mostly cloudy
 Wind from WSW
Wind: WSW 20 km/h
Temperature: 75°F , 24°C
Dew Point: 61°F , 16°C
Humidity: 61%
Barometer: 29.94 inHg , 1013.9 hPa
Clouds: Mostly cloudy
Visibility: 16 km
Cloud details: Few Clouds 3500 ft
Few Clouds 5000 ft
Mostly cloudy 7500 ft
2021/05/10 18:56 KCAE 101856Z 24011KT 10SM FEW035 FEW050 BKN075 24/16 A2994 RMK AO2 SLP135 T02440156
 
KAQX - Allendale, South Carolina, USA
Distance from station: SE 50mi, 80km
Updated: Mon, 10-May-2021 15:15 EDT
Partly cloudy
Partly cloudy
 Wind from calm
Wind: Calm
Temperature: 79°F , 26°C
Dew Point: 70°F , 21°C
Humidity: 74%
Barometer: 29.96 inHg , 1014.6 hPa
Clouds: Partly cloudy
Visibility: 16 km
Cloud details: Few Clouds 2200 ft
Few Clouds 4500 ft
Partly cloudy 7000 ft
2021/05/10 19:15 KAQX 101915Z AUTO 00000KT 10SM FEW022 FEW045 SCT070 26/21 A2996 RMK AO2